Terminal Aerodrome Forecast
Issued by NWS

Home | Current Version | Previous Version | Text Only | Print | Product List | Glossary On
Versions: 1 2 3 4 5 6 7 8 9 10 11 12 13 14 15
000
FTUS41 KLWX 271722
TAFMTN
TAF
KMTN 271722Z 2718/2818 13005KT P6SM BKN021 BKN060
     FM272100 19006KT P6SM VCTS BKN050CB BKN150
     FM280400 18004KT P6SM BKN130
     FM281400 08004KT P6SM BKN050=

USA.gov is the U.S. government's official web portal to all federal, state and local government web resources and services.